Terminal Aerodrome Forecast
Issued by NWS Cleveland, OH

Home | Current Version | Previous Version | Graphics & Text | Print | Product List | Glossary On
Versions: 1 2 3 4 5 6 7 8 9 10 11 12 13 14 15 16
000
FTUS41 KCLE 181741
TAFYNG
TAF
KYNG 181741Z 1818/1918 VRB04KT P6SM BKN025
     FM181900 VRB04KT P6SM SCT025
     FM190800 14008KT P6SM SCT250 WS020/18040KT
     FM191200 17010KT P6SM -RA OVC045 WS020/20040KT
     FM191500 17010KT 3SM -RA BR OVC007 WS020/21040KT=

USA.gov is the U.S. government's official web portal to all federal, state and local government web resources and services.